Time;durP1;ratioP1;P1;durP2;ratioP2;P2;SDS_P1;SDS_P2;PMS_P1;PMS_P2;Temp;Humidity;BMP_temperature;BMP_pressure;BME280_temperature;BME280_humidity;BME280_pressure;Samples;Min_cycle;Max_cycle;Signal;HPM_P1;HPM_P2
2021/03/25 00:01:26;;;;;;;39.22;14.38;;;7.40;99.90;;;;;;5023977;28;20068;-67
2021/03/25 00:03:54;;;;;;;31.90;13.43;;;7.40;99.90;;;;;;5039195;28;20045;-69
2021/03/25 00:06:21;;;;;;;37.88;15.70;;;7.30;99.90;;;;;;5026416;28;20033;-67
2021/03/25 00:08:47;;;;;;;35.92;14.75;;;7.30;99.90;;;;;;5026338;28;20057;-67
2021/03/25 00:11:12;;;;;;;39.58;16.50;;;7.20;99.90;;;;;;5028014;28;20080;-67
2021/03/25 00:13:38;;;;;;;39.80;16.80;;;7.20;99.90;;;;;;5026835;28;20034;-67
2021/03/25 00:16:04;;;;;;;40.80;15.50;;;7.20;99.90;;;;;;5025953;28;20474;-67
2021/03/25 00:18:31;;;;;;;44.85;17.08;;;7.20;99.90;;;;;;5027540;28;20037;-67
2021/03/25 00:20:57;;;;;;;38.35;16.20;;;7.20;99.90;;;;;;5023796;28;20022;-67
2021/03/25 00:23:22;;;;;;;40.58;17.52;;;7.20;99.90;;;;;;5025240;28;20030;-67
2021/03/25 00:25:48;;;;;;;39.85;17.80;;;7.20;99.90;;;;;;5026134;28;20426;-67
2021/03/25 00:28:16;;;;;;;39.17;16.92;;;7.20;99.90;;;;;;5027821;28;20096;-67
2021/03/25 00:30:42;;;;;;;39.10;16.27;;;7.20;99.90;;;;;;5025566;28;20029;-67
2021/03/25 00:33:10;;;;;;;41.08;16.77;;;7.20;99.90;;;;;;5021796;28;20034;-67
2021/03/25 00:35:36;;;;;;;38.80;16.88;;;7.20;99.90;;;;;;5025337;28;20029;-67
2021/03/25 00:38:03;;;;;;;37.00;15.80;;;7.20;99.90;;;;;;5020916;28;20410;-67
2021/03/25 00:40:29;;;;;;;50.85;17.88;;;7.20;99.90;;;;;;5026854;28;20040;-67
2021/03/25 00:42:54;;;;;;;42.15;17.00;;;7.20;99.90;;;;;;5022636;28;20034;-67
2021/03/25 00:45:38;;;;;;;42.58;16.42;;;7.20;99.90;;;;;;5023402;28;20038;-67
2021/03/25 00:48:04;;;;;;;46.33;16.88;;;7.20;99.90;;;;;;5024966;28;20467;-67
2021/03/25 00:50:32;;;;;;;46.90;17.73;;;7.20;99.90;;;;;;5027094;28;20053;-67
2021/03/25 00:52:59;;;;;;;49.80;17.40;;;7.20;99.90;;;;;;5023990;28;20088;-67
2021/03/25 00:55:25;;;;;;;47.10;18.65;;;7.20;99.90;;;;;;5028413;28;20486;-67
2021/03/25 00:57:51;;;;;;;39.10;16.17;;;7.20;99.90;;;;;;5027284;28;20042;-67
2021/03/25 01:00:40;;;;;;;41.25;16.60;;;7.20;99.90;;;;;;5026077;28;20117;-67
2021/03/25 01:03:07;;;;;;;47.22;18.88;;;7.20;99.90;;;;;;5021883;28;20511;-67
2021/03/25 01:05:34;;;;;;;40.45;16.33;;;7.20;99.90;;;;;;5018329;28;20125;-67
2021/03/25 01:08:00;;;;;;;44.15;16.90;;;7.30;99.90;;;;;;5021734;28;20082;-67
2021/03/25 01:10:32;;;;;;;45.60;17.55;;;7.30;99.90;;;;;;5018027;28;20554;-67
2021/03/25 01:12:59;;;;;;;39.33;16.77;;;7.30;99.90;;;;;;5021949;28;20405;-67
2021/03/25 01:15:26;;;;;;;45.05;15.63;;;7.20;99.90;;;;;;5022122;28;20406;-67
2021/03/25 01:17:55;;;;;;;43.38;16.55;;;7.20;99.90;;;;;;5018861;28;20026;-67
2021/03/25 01:20:32;;;;;;;46.58;17.02;;;7.20;99.90;;;;;;5021307;28;20033;-67
2021/03/25 01:22:59;;;;;;;44.17;17.70;;;7.10;99.90;;;;;;5017385;28;20556;-67
2021/03/25 01:25:29;;;;;;;44.78;17.75;;;7.10;99.90;;;;;;5021707;28;20121;-67
2021/03/25 01:27:55;;;;;;;43.92;16.65;;;7.10;99.90;;;;;;5021225;28;20038;-67
2021/03/25 01:30:22;;;;;;;41.60;17.58;;;7.00;99.90;;;;;;5018021;28;20046;-67
2021/03/25 01:32:47;;;;;;;44.85;16.75;;;7.00;99.90;;;;;;5020791;28;20713;-67
2021/03/25 01:35:14;;;;;;;38.80;16.48;;;7.00;99.90;;;;;;5018965;28;20121;-67
2021/03/25 01:37:41;;;;;;;48.72;17.13;;;6.90;99.90;;;;;;5018584;28;20068;-66
2021/03/25 01:40:14;;;;;;;38.15;17.25;;;6.90;99.90;;;;;;5020063;28;20029;-67
2021/03/25 01:42:40;;;;;;;43.78;16.65;;;6.80;99.90;;;;;;5019702;28;20041;-67
2021/03/25 01:45:30;;;;;;;43.65;17.08;;;6.80;99.90;;;;;;5020356;28;20029;-67
2021/03/25 01:47:58;;;;;;;54.58;17.13;;;6.80;99.90;;;;;;5021916;28;20474;-67
2021/03/25 01:50:25;;;;;;;48.10;17.48;;;6.80;99.90;;;;;;5022510;28;20038;-68
2021/03/25 01:53:20;;;;;;;42.35;15.85;;;6.80;99.90;;;;;;5021137;28;20029;-67
2021/03/25 01:56:00;;;;;;;43.45;17.17;;;6.70;99.90;;;;;;5022103;28;20088;-67
2021/03/25 01:58:46;;;;;;;43.17;17.27;;;6.70;99.90;;;;;;5037658;28;20462;-67
2021/03/25 02:01:15;;;;;;;42.55;17.17;;;6.60;99.90;;;;;;5022327;28;20044;-67
2021/03/25 02:04:19;;;;;;;39.88;16.30;;;6.60;99.90;;;;;;5020104;28;20041;-67
2021/03/25 02:07:15;;;;;;;44.10;17.48;;;6.60;99.90;;;;;;5020440;28;20471;-67
2021/03/25 02:09:59;;;;;;;53.70;18.20;;;6.50;99.90;;;;;;5022065;28;20041;-67
2021/03/25 02:12:31;;;;;;;48.05;17.95;;;6.50;99.90;;;;;;5020284;28;20068;-67
2021/03/25 02:15:02;;;;;;;43.88;16.38;;;6.40;99.90;;;;;;5021900;28;20068;-67
2021/03/25 02:17:40;;;;;;;41.15;17.40;;;6.40;99.90;;;;;;5016241;28;20432;-67
2021/03/25 02:20:36;;;;;;;47.65;17.38;;;6.40;99.90;;;;;;5019858;28;20072;-67
2021/03/25 02:23:14;;;;;;;49.03;16.88;;;6.30;99.90;;;;;;5020058;28;20044;-67
2021/03/25 02:26:00;;;;;;;53.50;18.80;;;6.30;99.90;;;;;;5019534;28;20038;-67
2021/03/25 02:28:46;;;;;;;47.10;18.52;;;6.30;99.90;;;;;;5021990;28;20030;-67
2021/03/25 02:31:19;;;;;;;47.58;17.73;;;6.20;99.90;;;;;;5019662;28;20537;-67
2021/03/25 02:33:48;;;;;;;45.75;17.50;;;6.20;99.90;;;;;;5017908;28;20167;-67
2021/03/25 02:36:19;;;;;;;52.45;19.42;;;6.20;99.90;;;;;;5020402;28;20038;-67
2021/03/25 02:38:47;;;;;;;;;;;6.20;99.90;;;;;;5017801;28;20372;-67
2021/03/25 02:41:17;;;;;;;47.03;18.95;;;6.30;99.90;;;;;;5020014;28;19981;-67
2021/03/25 02:44:10;;;;;;;50.90;17.90;;;6.30;99.90;;;;;;5018866;28;20037;-68
2021/03/25 02:46:56;;;;;;;52.38;19.27;;;6.40;99.90;;;;;;5022080;28;20124;-67
2021/03/25 02:49:28;;;;;;;52.28;19.90;;;6.50;99.90;;;;;;5020539;28;20030;-66
2021/03/25 02:52:07;;;;;;;54.10;20.77;;;6.50;99.90;;;;;;5022847;28;20041;-67
2021/03/25 02:54:33;;;;;;;58.35;19.83;;;6.50;99.90;;;;;;5031166;28;20034;-73
2021/03/25 02:57:14;;;;;;;53.65;18.70;;;6.50;99.90;;;;;;5044040;28;20113;-68
2021/03/25 02:59:44;;;;;;;51.20;19.60;;;6.50;99.90;;;;;;5028433;28;20141;-67
2021/03/25 03:02:16;;;;;;;50.47;19.50;;;6.50;99.90;;;;;;5027155;28;20057;-68
2021/03/25 03:04:45;;;;;;;58.67;20.40;;;6.50;99.90;;;;;;5018588;28;20042;-67
2021/03/25 03:07:17;;;;;;;53.90;21.02;;;6.60;99.90;;;;;;5019979;28;20026;-67
2021/03/25 03:09:46;;;;;;;57.80;20.33;;;6.70;99.90;;;;;;5017383;28;20123;-67
2021/03/25 03:12:21;;;;;;;54.13;20.27;;;6.70;99.90;;;;;;5020059;28;20129;-67
2021/03/25 03:14:56;;;;;;;50.05;19.92;;;6.80;99.90;;;;;;5016800;28;20030;-67
2021/03/25 03:17:31;;;;;;;62.28;21.67;;;6.90;99.90;;;;;;5017119;28;20491;-67
2021/03/25 03:20:15;;;;;;;56.72;21.27;;;6.90;99.90;;;;;;5019599;28;20506;-67
2021/03/25 03:22:40;;;;;;;55.42;19.98;;;6.90;99.90;;;;;;5019415;28;20048;-68
2021/03/25 03:25:13;;;;;;;53.60;20.40;;;7.00;99.90;;;;;;5017204;28;20037;-67
2021/03/25 03:27:50;;;;;;;54.22;20.83;;;7.00;99.90;;;;;;5019361;28;20045;-67
2021/03/25 03:30:38;;;;;;;52.13;20.13;;;7.00;99.90;;;;;;5017421;28;20044;-67
2021/03/25 03:33:17;;;;;;;57.47;21.23;;;7.00;99.90;;;;;;5020546;28;20060;-67
2021/03/25 03:36:04;;;;;;;49.75;18.55;;;7.10;99.90;;;;;;5019016;28;20098;-67
2021/03/25 03:38:50;;;;;;;57.15;20.45;;;7.10;99.90;;;;;;5020990;28;20067;-67
2021/03/25 03:41:22;;;;;;;57.30;21.10;;;7.10;99.90;;;;;;5020150;28;20494;-67
2021/03/25 03:43:49;;;;;;;56.28;20.92;;;7.10;99.90;;;;;;5020779;28;20044;-67
2021/03/25 03:46:22;;;;;;;56.92;21.63;;;7.10;99.90;;;;;;5015313;28;20034;-67
2021/03/25 03:48:56;;;;;;;60.05;21.85;;;7.10;99.90;;;;;;5020732;28;20037;-67
2021/03/25 03:51:32;;;;;;;62.20;23.67;;;7.10;99.90;;;;;;5017514;28;20116;-67
2021/03/25 03:54:01;;;;;;;61.83;22.23;;;7.20;99.90;;;;;;5021749;28;20076;-69
2021/03/25 03:56:54;;;;;;;52.28;20.23;;;7.20;99.90;;;;;;5020827;28;20041;-67
2021/03/25 03:59:42;;;;;;;52.78;20.10;;;7.20;99.90;;;;;;5019972;28;20445;-67
2021/03/25 04:02:35;;;;;;;56.85;22.02;;;7.30;99.90;;;;;;5019308;28;20039;-67
2021/03/25 04:05:16;;;;;;;53.97;21.63;;;7.30;99.90;;;;;;5039610;28;20087;-67
2021/03/25 04:07:46;;;;;;;57.47;21.75;;;7.30;99.90;;;;;;5021665;28;20041;-67
2021/03/25 04:10:44;;;;;;;54.10;21.25;;;7.30;99.90;;;;;;5020960;28;20041;-66
2021/03/25 04:13:14;;;;;;;56.72;22.20;;;7.20;99.90;;;;;;5024148;28;20095;-67
2021/03/25 04:15:45;;;;;;;58.57;23.53;;;7.30;99.90;;;;;;5023228;28;20466;-67
2021/03/25 04:18:19;;;;;;;63.65;25.05;;;7.20;99.90;;;;;;5019911;28;20125;-67
2021/03/25 04:20:50;;;;;;;60.78;25.13;;;7.30;99.90;;;;;;5023729;28;20440;-67
2021/03/25 04:23:20;;;;;;;65.20;24.30;;;7.20;99.90;;;;;;5019782;28;20042;-67
2021/03/25 04:25:55;;;;;;;68.55;27.83;;;7.30;99.90;;;;;;5023492;28;20040;-68
2021/03/25 04:28:29;;;;;;;65.32;24.65;;;7.30;99.90;;;;;;5020139;28;20117;-67
2021/03/25 04:30:55;;;;;;;65.25;25.35;;;7.30;99.90;;;;;;5021889;28;20033;-67
2021/03/25 04:33:24;;;;;;;67.07;26.60;;;7.30;99.90;;;;;;5018182;28;20399;-67
2021/03/25 04:35:50;;;;;;;59.55;24.35;;;7.30;99.90;;;;;;5022664;28;20057;-67
2021/03/25 04:38:24;;;;;;;65.13;27.58;;;7.30;99.90;;;;;;5019481;28;20037;-67
2021/03/25 04:40:53;;;;;;;68.10;25.83;;;7.20;99.90;;;;;;5023408;28;20132;-67
2021/03/25 04:43:21;;;;;;;64.10;25.52;;;7.30;99.90;;;;;;5019534;28;20069;-67
2021/03/25 04:46:20;;;;;;;66.47;27.48;;;7.30;99.90;;;;;;5022685;28;20026;-67
2021/03/25 04:48:46;;;;;;;70.80;24.65;;;7.20;99.90;;;;;;5024097;28;20034;-67
2021/03/25 04:51:23;;;;;;;69.93;27.33;;;7.20;99.90;;;;;;5019496;28;20037;-67
2021/03/25 04:53:51;;;;;;;74.13;27.63;;;7.30;99.90;;;;;;5023195;28;20040;-68
2021/03/25 04:56:22;;;;;;;71.43;26.85;;;7.20;99.90;;;;;;5017949;28;20030;-67
2021/03/25 04:58:54;;;;;;;69.85;27.70;;;7.20;99.90;;;;;;5021957;28;20033;-67
2021/03/25 05:01:23;;;;;;;70.43;30.10;;;7.20;99.90;;;;;;5018149;28;20065;-67
2021/03/25 05:03:54;;;;;;;72.20;30.52;;;7.20;99.90;;;;;;5021089;28;20029;-67
2021/03/25 05:06:27;;;;;;;73.32;31.15;;;7.30;99.90;;;;;;5017950;28;20034;-67
2021/03/25 05:08:55;;;;;;;87.32;33.83;;;7.20;99.90;;;;;;5019266;28;20112;-67
2021/03/25 05:11:24;;;;;;;77.40;31.23;;;7.20;99.90;;;;;;5019458;28;20026;-67
2021/03/25 05:13:50;;;;;;;79.55;32.10;;;7.30;99.90;;;;;;5021142;28;20036;-67
2021/03/25 05:16:41;;;;;;;74.43;30.38;;;7.30;99.90;;;;;;5018934;28;20495;-67
2021/03/25 05:19:16;;;;;;;80.97;29.73;;;7.30;99.90;;;;;;5019308;28;20065;-67
2021/03/25 05:22:22;;;;;;;72.97;29.60;;;7.30;99.90;;;;;;5022816;28;20454;-67
2021/03/25 05:25:08;;;;;;;80.88;29.83;;;7.30;99.90;;;;;;5022377;28;20045;-67
2021/03/25 05:27:34;;;;;;;77.53;27.65;;;7.20;99.90;;;;;;5020949;28;20518;-67
2021/03/25 05:30:01;;;;;;;68.55;27.13;;;7.20;99.90;;;;;;5019910;28;20048;-67
2021/03/25 05:32:33;;;;;;;67.63;26.55;;;7.10;99.90;;;;;;5025209;28;20049;-67
2021/03/25 05:35:06;;;;;;;70.88;26.10;;;7.10;99.90;;;;;;5019857;28;20037;-67
2021/03/25 05:37:32;;;;;;;66.97;26.63;;;7.20;99.90;;;;;;5019632;28;20037;-67
2021/03/25 05:39:57;;;;;;;62.00;24.52;;;7.10;99.90;;;;;;5020455;28;20037;-67
2021/03/25 05:42:41;;;;;;;64.25;24.83;;;7.10;99.90;;;;;;5020646;28;20453;-68
2021/03/25 05:45:28;;;;;;;72.28;23.77;;;7.20;99.90;;;;;;5021373;28;20048;-67
2021/03/25 05:48:03;;;;;;;55.58;22.52;;;7.10;99.90;;;;;;5021988;28;20065;-67
2021/03/25 05:50:31;;;;;;;64.40;22.58;;;7.20;99.90;;;;;;5025546;28;20593;-67
2021/03/25 05:52:57;;;;;;;62.72;23.90;;;7.20;99.90;;;;;;5019310;28;20750;-66
2021/03/25 05:55:56;;;;;;;75.05;23.35;;;7.20;99.90;;;;;;5019024;28;20124;-67
2021/03/25 05:58:31;;;;;;;62.58;23.55;;;7.30;99.90;;;;;;5019738;28;20046;-67
2021/03/25 06:01:15;;;;;;;55.10;21.33;;;7.30;99.90;;;;;;5021296;28;20487;-67
2021/03/25 06:03:58;;;;;;;61.95;21.63;;;7.30;99.90;;;;;;5018750;28;20478;-67
2021/03/25 06:06:45;;;;;;;55.13;20.77;;;7.30;99.90;;;;;;5019680;28;20044;-67
2021/03/25 06:09:37;;;;;;;60.03;23.25;;;7.40;99.90;;;;;;5019290;28;20029;-67
2021/03/25 06:12:17;;;;;;;61.72;22.58;;;7.40;99.90;;;;;;5022578;28;20054;-67
2021/03/25 06:15:04;;;;;;;63.92;23.80;;;7.40;99.90;;;;;;5022454;28;20026;-67
2021/03/25 06:17:40;;;;;;;52.65;22.13;;;7.40;99.90;;;;;;5027720;28;20041;-67
2021/03/25 06:20:29;;;;;;;52.17;19.50;;;7.40;99.90;;;;;;5020837;28;20057;-67
2021/03/25 06:23:33;;;;;;;56.78;21.58;;;7.40;99.90;;;;;;5019537;28;20045;-67
2021/03/25 06:26:17;;;;;;;71.68;22.70;;;7.40;99.90;;;;;;5022763;28;20052;-67
2021/03/25 06:28:52;;;;;;;56.63;22.38;;;7.50;99.90;;;;;;5026637;28;20036;-67
2021/03/25 06:31:46;;;;;;;43.70;19.38;;;7.60;99.90;;;;;;5018680;28;20044;-67
2021/03/25 06:34:38;;;;;;;48.63;19.63;;;7.80;99.90;;;;;;5018013;28;20030;-67
2021/03/25 06:37:19;;;;;;;47.10;19.25;;;8.00;99.90;;;;;;5020816;28;20033;-67
2021/03/25 06:39:53;;;;;;;51.35;19.10;;;8.20;99.90;;;;;;5029945;28;20034;-67
2021/03/25 06:42:47;;;;;;;47.05;18.70;;;8.50;99.90;;;;;;5031075;28;20037;-67
2021/03/25 06:45:23;;;;;;;54.47;18.73;;;8.50;99.90;;;;;;5036409;28;20034;-66
2021/03/25 06:48:07;;;;;;;49.10;18.45;;;8.60;99.90;;;;;;5022718;28;20028;-67
2021/03/25 06:50:36;;;;;;;48.38;19.65;;;8.60;99.90;;;;;;5016836;28;20037;-65
2021/03/25 06:53:09;;;;;;;48.13;19.23;;;8.50;99.90;;;;;;5024551;28;20034;-66
2021/03/25 06:55:35;;;;;;;39.22;17.05;;;8.50;99.90;;;;;;5023199;28;20061;-65
2021/03/25 06:58:08;;;;;;;46.50;19.08;;;8.50;99.90;;;;;;5016458;28;20453;-65
2021/03/25 07:00:39;;;;;;;50.67;18.75;;;8.50;99.90;;;;;;5019812;28;20695;-66
2021/03/25 07:03:07;;;;;;;54.70;19.33;;;8.50;99.90;;;;;;5019871;28;20041;-66
2021/03/25 07:05:35;;;;;;;43.85;18.75;;;8.60;99.90;;;;;;5016283;28;20030;-66
2021/03/25 07:08:13;;;;;;;54.85;19.25;;;8.60;99.90;;;;;;5021358;28;20038;-66
2021/03/25 07:10:38;;;;;;;44.80;17.13;;;8.60;99.90;;;;;;5019871;28;20044;-66
2021/03/25 07:13:05;;;;;;;49.83;17.63;;;8.60;99.90;;;;;;5018962;28;20037;-65
2021/03/25 07:15:36;;;;;;;42.47;17.70;;;8.60;99.90;;;;;;5019553;28;20117;-65
2021/03/25 07:18:25;;;;;;;48.92;18.92;;;8.60;99.90;;;;;;5023932;28;20063;-66
2021/03/25 07:21:19;;;;;;;46.00;18.10;;;8.70;99.90;;;;;;5020523;28;20037;-65
2021/03/25 07:23:45;;;;;;;45.63;17.63;;;8.90;99.90;;;;;;5036783;28;20121;-66
2021/03/25 07:26:36;;;;;;;38.45;16.60;;;8.80;99.90;;;;;;5020269;28;20049;-66
2021/03/25 07:29:12;;;;;;;47.15;18.10;;;8.80;99.90;;;;;;5027148;28;20456;-66
2021/03/25 07:31:43;;;;;;;41.50;17.08;;;8.80;99.90;;;;;;5027500;28;20053;-65
2021/03/25 07:34:09;;;;;;;41.45;18.02;;;8.90;99.90;;;;;;5027650;28;20633;-65
2021/03/25 07:36:49;;;;;;;60.03;19.15;;;9.10;99.90;;;;;;5023743;28;20045;-65
2021/03/25 07:39:22;;;;;;;40.22;18.10;;;9.40;99.90;;;;;;5023453;28;20034;-65
2021/03/25 07:41:49;;;;;;;43.15;16.85;;;9.80;99.90;;;;;;5022793;28;20053;-66
2021/03/25 07:44:29;;;;;;;38.25;16.08;;;10.10;99.90;;;;;;5023785;28;20390;-66
2021/03/25 07:46:58;;;;;;;41.60;16.63;;;10.40;99.90;;;;;;5022091;28;20037;-66
2021/03/25 07:49:30;;;;;;;44.00;17.33;;;10.50;99.90;;;;;;5027070;28;20025;-67
2021/03/25 07:52:00;;;;;;;45.22;16.80;;;10.40;99.90;;;;;;5025969;28;20069;-66
2021/03/25 07:54:34;;;;;;;;;;;10.40;99.90;;;;;;5028998;28;20038;-66
2021/03/25 07:57:04;;;;;;;33.95;15.85;;;10.30;99.90;;;;;;5023982;28;19994;-66
2021/03/25 07:59:41;;;;;;;34.70;16.15;;;10.30;99.90;;;;;;5023665;28;20025;-66
2021/03/25 08:02:36;;;;;;;38.67;16.95;;;10.30;99.90;;;;;;5018875;28;20116;-66
2021/03/25 08:05:21;;;;;;;41.60;15.27;;;10.40;99.90;;;;;;5026588;28;20482;-66
2021/03/25 08:07:49;;;;;;;39.63;15.75;;;10.60;99.90;;;;;;5022721;28;20041;-66
2021/03/25 08:10:43;;;;;;;35.30;15.00;;;10.70;99.90;;;;;;5021803;28;20041;-65
2021/03/25 08:13:25;;;;;;;35.22;15.75;;;10.70;99.90;;;;;;5029889;28;20041;-67
2021/03/25 08:16:11;;;;;;;39.63;15.23;;;10.80;99.90;;;;;;5029235;28;20033;-66
2021/03/25 08:18:48;;;;;;;39.55;14.85;;;10.60;99.90;;;;;;5029410;28;20044;-66
2021/03/25 08:21:40;;;;;;;38.55;15.05;;;10.60;99.90;;;;;;5024185;28;20044;-65
2021/03/25 08:24:24;;;;;;;49.58;17.50;;;10.60;99.90;;;;;;5026044;28;20148;-67
2021/03/25 08:27:14;;;;;;;32.05;15.55;;;10.60;99.90;;;;;;5024668;28;20062;-66
2021/03/25 08:29:54;;;;;;;43.10;15.68;;;10.70;99.90;;;;;;5038546;28;20406;-66
2021/03/25 08:32:48;;;;;;;35.25;15.25;;;10.50;99.90;;;;;;5018096;28;20080;-66
2021/03/25 08:35:22;;;;;;;36.90;15.98;;;10.60;99.90;;;;;;5024418;28;20065;-66
2021/03/25 08:38:18;;;;;;;38.63;15.68;;;10.60;99.90;;;;;;5023589;28;20711;-66
2021/03/25 08:41:10;;;;;;;32.22;14.00;;;10.50;99.90;;;;;;5022293;28;20038;-66
2021/03/25 08:43:52;;;;;;;34.65;13.68;;;10.50;99.90;;;;;;5037711;28;20562;-66
2021/03/25 08:46:31;;;;;;;41.17;15.70;;;10.40;99.90;;;;;;5022250;28;20029;-65
2021/03/25 08:49:00;;;;;;;38.03;14.70;;;10.40;99.90;;;;;;5023678;28;20067;-66
2021/03/25 08:51:35;;;;;;;41.10;16.05;;;10.40;99.90;;;;;;5025709;28;20101;-66
2021/03/25 08:54:03;;;;;;;39.67;15.27;;;10.50;99.90;;;;;;5018315;28;20037;-66
2021/03/25 08:57:01;;;;;;;36.40;14.68;;;10.60;99.90;;;;;;5024072;28;20026;-65
2021/03/25 08:59:32;;;;;;;36.90;14.60;;;10.70;99.90;;;;;;5026318;28;20041;-66
2021/03/25 09:02:02;;;;;;;36.47;15.50;;;10.70;99.90;;;;;;5044523;28;20056;-65
2021/03/25 09:04:45;;;;;;;39.95;17.27;;;10.70;99.90;;;;;;5011542;28;20502;-66
2021/03/25 09:07:11;;;;;;;40.47;15.05;;;10.80;99.90;;;;;;5034374;28;20034;-66
2021/03/25 09:09:48;;;;;;;39.05;14.45;;;10.80;99.90;;;;;;5024467;28;20041;-66
2021/03/25 09:12:27;;;;;;;36.22;15.30;;;11.00;99.90;;;;;;5021099;28;20364;-66
2021/03/25 09:14:55;;;;;;;36.83;14.80;;;11.00;99.90;;;;;;5019185;28;20026;-66
2021/03/25 09:17:25;;;;;;;34.53;15.27;;;11.00;99.90;;;;;;5024050;28;20644;-66
2021/03/25 09:19:55;;;;;;;31.35;14.55;;;11.00;99.90;;;;;;5023123;28;20040;-66
2021/03/25 09:22:41;;;;;;;37.03;14.63;;;11.10;99.90;;;;;;5022139;28;20116;-65
2021/03/25 09:25:18;;;;;;;31.88;13.43;;;11.20;99.90;;;;;;5019362;28;20041;-66
2021/03/25 09:28:21;;;;;;;34.33;13.02;;;11.30;99.90;;;;;;5023820;28;20509;-66
2021/03/25 09:30:55;;;;;;;31.70;13.50;;;11.40;99.90;;;;;;5023244;28;20121;-66
2021/03/25 09:33:42;;;;;;;31.17;13.45;;;11.60;99.90;;;;;;5024262;28;20807;-66
2021/03/25 09:36:16;;;;;;;30.77;13.23;;;11.70;99.90;;;;;;5024031;28;20095;-66
2021/03/25 09:38:50;;;;;;;30.70;12.93;;;11.70;99.90;;;;;;5022509;28;20045;-66
2021/03/25 09:41:29;;;;;;;37.17;14.30;;;11.60;99.90;;;;;;5024233;28;20033;-66
2021/03/25 09:44:17;;;;;;;29.13;12.38;;;11.60;99.90;;;;;;5020720;28;20072;-66
2021/03/25 09:46:44;;;;;;;31.15;13.02;;;11.60;99.90;;;;;;5023142;28;20034;-66
2021/03/25 09:49:26;;;;;;;34.03;13.18;;;11.70;99.90;;;;;;5022934;28;20083;-67
2021/03/25 09:52:13;;;;;;;26.70;10.95;;;11.80;99.90;;;;;;5021872;28;20069;-66
2021/03/25 09:54:53;;;;;;;22.73;10.32;;;11.70;99.90;;;;;;5021331;28;20052;-67
2021/03/25 09:57:34;;;;;;;28.05;11.50;;;11.60;99.90;;;;;;5026733;28;20104;-66
2021/03/25 10:00:18;;;;;;;24.08;9.75;;;11.60;99.90;;;;;;5027457;28;20040;-66
2021/03/25 10:02:44;;;;;;;18.85;9.20;;;11.50;99.90;;;;;;5021713;28;20475;-67
2021/03/25 10:05:31;;;;;;;26.90;8.93;;;11.50;99.90;;;;;;5022138;28;20033;-66
2021/03/25 10:08:09;;;;;;;21.35;9.18;;;11.50;99.90;;;;;;5022655;28;20678;-66
2021/03/25 10:10:40;;;;;;;17.20;7.82;;;11.40;99.90;;;;;;5020946;28;20033;-66
2021/03/25 10:13:06;;;;;;;15.70;7.72;;;11.40;99.90;;;;;;5022942;28;20053;-66
2021/03/25 10:15:50;;;;;;;17.25;8.10;;;11.40;99.90;;;;;;5021928;28;20513;-66
2021/03/25 10:18:15;;;;;;;17.02;8.38;;;11.30;99.90;;;;;;5019909;28;20066;-66
2021/03/25 10:20:49;;;;;;;16.67;9.23;;;11.20;99.90;;;;;;5019498;28;20057;-66
2021/03/25 10:23:15;;;;;;;18.50;8.80;;;11.20;99.90;;;;;;5021671;28;20036;-66
2021/03/25 10:25:40;;;;;;;14.50;7.60;;;11.20;99.90;;;;;;5020697;28;20041;-66
2021/03/25 10:28:20;;;;;;;12.00;6.63;;;11.10;99.90;;;;;;5022215;28;20078;-66
2021/03/25 10:30:46;;;;;;;11.13;5.65;;;11.20;99.90;;;;;;5022839;28;20125;-66
2021/03/25 10:33:14;;;;;;;10.15;5.78;;;11.20;99.90;;;;;;5022865;28;20065;-65
2021/03/25 10:35:51;;;;;;;11.43;5.38;;;11.40;99.90;;;;;;5019057;28;20124;-66
2021/03/25 10:38:23;;;;;;;12.52;5.60;;;11.50;99.90;;;;;;5020045;28;20052;-66
2021/03/25 10:40:56;;;;;;;9.68;5.20;;;11.60;99.90;;;;;;5022566;28;20519;-66
2021/03/25 10:43:32;;;;;;;8.90;4.82;;;11.90;99.90;;;;;;5017088;28;20136;-66
2021/03/25 10:46:01;;;;;;;9.68;5.15;;;11.90;99.90;;;;;;5026945;28;20033;-66
2021/03/25 10:48:33;;;;;;;14.00;6.20;;;11.90;99.90;;;;;;5018801;28;20037;-66
2021/03/25 10:51:14;;;;;;;13.35;6.38;;;11.90;99.90;;;;;;5023274;28;20029;-66
2021/03/25 10:53:53;;;;;;;13.13;6.03;;;11.90;99.90;;;;;;5022555;28;20037;-66
2021/03/25 10:56:32;;;;;;;15.30;7.03;;;11.90;99.90;;;;;;5022297;28;20511;-66
2021/03/25 10:59:11;;;;;;;13.77;6.72;;;11.80;99.90;;;;;;5019290;28;20392;-66
2021/03/25 11:01:52;;;;;;;14.52;7.28;;;11.80;99.90;;;;;;5024904;28;21535;-66
2021/03/25 11:04:21;;;;;;;17.70;7.78;;;11.70;99.90;;;;;;5025342;28;20073;-67
2021/03/25 11:06:47;;;;;;;20.55;9.18;;;11.50;99.90;;;;;;5039985;28;20025;-67
2021/03/25 11:09:26;;;;;;;23.58;10.32;;;11.40;99.90;;;;;;5039298;28;20044;-67
2021/03/25 11:12:20;;;;;;;21.93;10.20;;;11.40;99.90;;;;;;5035653;28;20033;-66
2021/03/25 11:15:01;;;;;;;23.88;10.45;;;11.40;99.90;;;;;;5026068;28;20040;-67
2021/03/25 11:17:31;;;;;;;;;;;11.30;99.90;;;;;;5024807;28;20038;-66
2021/03/25 11:20:01;;;;;;;21.07;8.13;;;11.30;99.90;;;;;;5024976;28;20378;-69
2021/03/25 11:22:30;;;;;;;27.90;10.73;;;11.20;99.90;;;;;;5023136;28;20046;-66
2021/03/25 11:24:59;;;;;;;29.95;12.70;;;11.20;99.90;;;;;;5025605;28;20033;-65
2021/03/25 11:27:26;;;;;;;31.77;12.00;;;11.20;99.90;;;;;;5025970;28;20510;-66
2021/03/25 11:30:21;;;;;;;32.25;12.60;;;11.20;99.90;;;;;;5024518;28;20582;-67
2021/03/25 11:32:47;;;;;;;30.75;12.48;;;11.10;99.90;;;;;;5025041;28;20084;-66
2021/03/25 11:35:27;;;;;;;30.40;12.20;;;10.90;99.90;;;;;;5025870;28;20060;-66
2021/03/25 11:37:54;;;;;;;27.42;11.95;;;10.90;99.90;;;;;;5025861;28;20033;-66
2021/03/25 11:40:41;;;;;;;33.58;13.50;;;10.90;99.90;;;;;;5020928;28;20493;-66
2021/03/25 11:43:10;;;;;;;40.72;14.68;;;10.90;99.90;;;;;;5023134;28;20037;-66
2021/03/25 11:45:54;;;;;;;26.20;11.80;;;10.90;99.90;;;;;;5023756;28;20087;-66
2021/03/25 11:48:26;;;;;;;31.85;12.07;;;10.90;99.90;;;;;;5021710;28;20052;-66
2021/03/25 11:50:53;;;;;;;32.67;12.48;;;10.90;99.90;;;;;;5040672;28;20033;-66
2021/03/25 11:53:39;;;;;;;30.00;11.55;;;10.90;99.90;;;;;;5028593;28;20081;-66
2021/03/25 11:56:15;;;;;;;28.90;12.23;;;10.90;99.90;;;;;;5024985;28;20044;-66
2021/03/25 11:58:57;;;;;;;24.80;10.55;;;11.00;99.90;;;;;;5024624;28;20042;-66
2021/03/25 12:01:26;;;;;;;22.95;10.82;;;11.10;99.90;;;;;;5024489;28;20045;-66
2021/03/25 12:03:59;;;;;;;33.97;10.75;;;11.00;99.90;;;;;;5021436;28;20039;-66
2021/03/25 12:06:31;;;;;;;22.13;9.57;;;11.10;99.90;;;;;;5023243;28;20087;-66
2021/03/25 12:09:18;;;;;;;26.40;9.77;;;11.10;99.90;;;;;;5022226;28;20512;-66
2021/03/25 12:11:50;;;;;;;20.70;8.82;;;11.30;99.90;;;;;;5022193;28;20030;-66
2021/03/25 12:14:18;;;;;;;21.73;9.40;;;11.40;99.90;;;;;;5021070;28;20128;-65
2021/03/25 12:16:44;;;;;;;23.52;10.05;;;11.70;99.90;;;;;;5023638;28;20037;-66
2021/03/25 12:19:10;;;;;;;23.20;8.60;;;11.80;99.90;;;;;;5024652;28;20084;-66
2021/03/25 12:21:38;;;;;;;21.15;9.00;;;12.10;99.90;;;;;;5022294;28;20025;-66
2021/03/25 12:24:05;;;;;;;19.55;8.07;;;12.40;99.90;;;;;;5020204;28;20451;-67
2021/03/25 12:26:31;;;;;;;20.58;8.57;;;12.50;99.90;;;;;;5024618;28;20453;-67
2021/03/25 12:29:03;;;;;;;17.73;8.20;;;12.60;99.90;;;;;;5025679;28;20561;-66
2021/03/25 12:31:31;;;;;;;18.55;9.10;;;12.70;99.90;;;;;;5019811;28;20034;-69
2021/03/25 12:33:58;;;;;;;16.75;8.00;;;12.80;99.90;;;;;;5022552;28;20038;-66
2021/03/25 12:36:23;;;;;;;16.83;7.93;;;12.90;99.90;;;;;;5038759;28;20034;-76
2021/03/25 12:38:49;;;;;;;14.73;6.32;;;13.00;99.90;;;;;;5052548;28;20025;-68
2021/03/25 12:41:27;;;;;;;20.52;7.22;;;13.30;99.90;;;;;;5051894;28;20024;-67
2021/03/25 12:43:52;;;;;;;16.63;7.75;;;13.50;99.90;;;;;;5033972;28;20018;-67
2021/03/25 12:46:18;;;;;;;21.00;7.75;;;13.70;99.90;;;;;;5025983;28;20410;-66
2021/03/25 12:48:43;;;;;;;12.20;6.10;;;13.70;99.90;;;;;;5025118;28;20037;-66
2021/03/25 12:51:14;;;;;;;13.20;5.72;;;13.90;99.90;;;;;;5022669;28;20096;-66
2021/03/25 12:53:42;;;;;;;12.55;4.82;;;14.00;99.90;;;;;;5021008;28;20092;-67
2021/03/25 12:56:15;;;;;;;10.55;5.30;;;14.00;99.90;;;;;;5023030;28;20151;-65
2021/03/25 12:58:41;;;;;;;12.30;4.40;;;14.10;99.90;;;;;;5024690;28;20044;-65
2021/03/25 13:01:10;;;;;;;15.13;4.88;;;14.30;99.90;;;;;;5023798;28;20389;-65
2021/03/25 13:03:37;;;;;;;11.50;4.43;;;14.40;99.90;;;;;;5020320;28;20045;-66
2021/03/25 13:06:04;;;;;;;12.60;5.05;;;14.40;99.90;;;;;;5021467;28;20042;-66
2021/03/25 13:08:29;;;;;;;11.02;4.30;;;14.20;99.90;;;;;;5017288;28;20117;-66
2021/03/25 13:10:55;;;;;;;11.30;4.50;;;14.10;99.10;;;;;;5027097;28;20079;-66
2021/03/25 13:13:21;;;;;;;10.73;4.80;;;14.00;98.50;;;;;;5017070;28;20053;-67
2021/03/25 13:15:46;;;;;;;10.55;4.65;;;14.00;99.00;;;;;;5021636;28;20052;-66